sensor_id;sensor_type;location;lat;lon;timestamp;P1;durP1;ratioP1;P2;durP2;ratioP2
14613;SDS011;7393;51.446;6.800;2023-09-07T00:00:32;6.67;;;3.80;;
14613;SDS011;7393;51.446;6.800;2023-09-07T00:02:59;4.07;;;3.70;;
14613;SDS011;7393;51.446;6.800;2023-09-07T00:05:25;6.00;;;4.03;;
14613;SDS011;7393;51.446;6.800;2023-09-07T00:07:52;4.43;;;3.60;;
14613;SDS011;7393;51.446;6.800;2023-09-07T00:10:21;5.17;;;3.90;;
14613;SDS011;7393;51.446;6.800;2023-09-07T00:12:47;4.30;;;3.90;;
14613;SDS011;7393;51.446;6.800;2023-09-07T00:15:14;4.87;;;3.80;;
14613;SDS011;7393;51.446;6.800;2023-09-07T00:17:45;5.17;;;3.93;;
14613;SDS011;7393;51.446;6.800;2023-09-07T00:20:12;5.27;;;4.13;;
14613;SDS011;7393;51.446;6.800;2023-09-07T00:22:39;6.50;;;3.60;;
14613;SDS011;7393;51.446;6.800;2023-09-07T00:25:07;4.00;;;3.57;;
14613;SDS011;7393;51.446;6.800;2023-09-07T00:27:34;5.43;;;3.50;;
14613;SDS011;7393;51.446;6.800;2023-09-07T00:30:02;4.50;;;3.80;;
14613;SDS011;7393;51.446;6.800;2023-09-07T00:32:29;4.70;;;3.87;;
14613;SDS011;7393;51.446;6.800;2023-09-07T00:35:00;5.47;;;3.40;;
14613;SDS011;7393;51.446;6.800;2023-09-07T00:37:27;5.13;;;3.60;;
14613;SDS011;7393;51.446;6.800;2023-09-07T00:39:54;5.27;;;4.07;;
14613;SDS011;7393;51.446;6.800;2023-09-07T00:42:20;4.40;;;4.00;;
14613;SDS011;7393;51.446;6.800;2023-09-07T00:44:47;5.60;;;3.60;;
14613;SDS011;7393;51.446;6.800;2023-09-07T00:47:14;5.00;;;3.97;;
14613;SDS011;7393;51.446;6.800;2023-09-07T00:49:41;4.67;;;3.87;;
14613;SDS011;7393;51.446;6.800;2023-09-07T00:52:10;4.17;;;3.50;;
14613;SDS011;7393;51.446;6.800;2023-09-07T00:54:37;4.63;;;3.60;;
14613;SDS011;7393;51.446;6.800;2023-09-07T00:57:05;4.30;;;3.90;;
14613;SDS011;7393;51.446;6.800;2023-09-07T00:59:33;4.57;;;3.73;;
14613;SDS011;7393;51.446;6.800;2023-09-07T01:02:00;5.80;;;3.77;;
14613;SDS011;7393;51.446;6.800;2023-09-07T01:04:27;5.43;;;3.70;;
14613;SDS011;7393;51.446;6.800;2023-09-07T01:06:55;3.70;;;3.40;;
14613;SDS011;7393;51.446;6.800;2023-09-07T01:09:28;4.13;;;3.60;;
14613;SDS011;7393;51.446;6.800;2023-09-07T01:11:58;5.20;;;4.13;;
14613;SDS011;7393;51.446;6.800;2023-09-07T01:14:25;5.43;;;3.70;;
14613;SDS011;7393;51.446;6.800;2023-09-07T01:16:52;5.47;;;3.97;;
14613;SDS011;7393;51.446;6.800;2023-09-07T01:19:19;5.50;;;3.73;;
14613;SDS011;7393;51.446;6.800;2023-09-07T01:21:47;5.07;;;3.87;;
14613;SDS011;7393;51.446;6.800;2023-09-07T01:24:14;4.37;;;3.60;;
14613;SDS011;7393;51.446;6.800;2023-09-07T01:26:42;5.57;;;3.83;;
14613;SDS011;7393;51.446;6.800;2023-09-07T01:29:14;4.27;;;3.67;;
14613;SDS011;7393;51.446;6.800;2023-09-07T01:31:41;5.70;;;3.43;;
14613;SDS011;7393;51.446;6.800;2023-09-07T01:34:09;5.73;;;3.60;;
14613;SDS011;7393;51.446;6.800;2023-09-07T01:36:35;6.33;;;3.90;;
14613;SDS011;7393;51.446;6.800;2023-09-07T01:39:04;7.00;;;3.70;;
14613;SDS011;7393;51.446;6.800;2023-09-07T01:41:32;4.10;;;3.70;;
14613;SDS011;7393;51.446;6.800;2023-09-07T01:43:59;4.10;;;3.67;;
14613;SDS011;7393;51.446;6.800;2023-09-07T01:46:26;3.97;;;3.50;;
14613;SDS011;7393;51.446;6.800;2023-09-07T01:48:53;4.13;;;3.43;;
14613;SDS011;7393;51.446;6.800;2023-09-07T01:51:20;4.93;;;3.97;;
14613;SDS011;7393;51.446;6.800;2023-09-07T01:53:47;4.37;;;3.70;;
14613;SDS011;7393;51.446;6.800;2023-09-07T01:56:15;4.10;;;3.60;;
14613;SDS011;7393;51.446;6.800;2023-09-07T01:58:42;5.53;;;3.70;;
14613;SDS011;7393;51.446;6.800;2023-09-07T02:01:19;4.73;;;3.73;;
14613;SDS011;7393;51.446;6.800;2023-09-07T02:03:47;3.77;;;3.30;;
14613;SDS011;7393;51.446;6.800;2023-09-07T02:06:14;5.00;;;3.33;;
14613;SDS011;7393;51.446;6.800;2023-09-07T02:08:41;4.10;;;3.47;;
14613;SDS011;7393;51.446;6.800;2023-09-07T02:11:07;4.60;;;3.40;;
14613;SDS011;7393;51.446;6.800;2023-09-07T02:13:35;5.40;;;3.53;;
14613;SDS011;7393;51.446;6.800;2023-09-07T02:19:18;5.03;;;3.60;;
14613;SDS011;7393;51.446;6.800;2023-09-07T02:21:47;5.13;;;3.40;;
14613;SDS011;7393;51.446;6.800;2023-09-07T02:24:14;4.20;;;3.37;;
14613;SDS011;7393;51.446;6.800;2023-09-07T02:26:41;3.93;;;3.40;;
14613;SDS011;7393;51.446;6.800;2023-09-07T02:29:11;3.70;;;3.37;;
14613;SDS011;7393;51.446;6.800;2023-09-07T02:31:38;6.70;;;3.40;;
14613;SDS011;7393;51.446;6.800;2023-09-07T02:34:05;3.67;;;3.37;;
14613;SDS011;7393;51.446;6.800;2023-09-07T02:36:32;3.83;;;3.43;;
14613;SDS011;7393;51.446;6.800;2023-09-07T02:38:59;5.73;;;3.40;;
14613;SDS011;7393;51.446;6.800;2023-09-07T02:41:26;3.90;;;3.10;;
14613;SDS011;7393;51.446;6.800;2023-09-07T02:43:53;5.30;;;4.00;;
14613;SDS011;7393;51.446;6.800;2023-09-07T02:46:21;6.83;;;4.60;;
14613;SDS011;7393;51.446;6.800;2023-09-07T02:48:48;7.10;;;5.17;;
14613;SDS011;7393;51.446;6.800;2023-09-07T02:51:15;9.90;;;5.37;;
14613;SDS011;7393;51.446;6.800;2023-09-07T02:53:42;9.83;;;4.70;;
14613;SDS011;7393;51.446;6.800;2023-09-07T02:56:09;7.87;;;4.37;;
14613;SDS011;7393;51.446;6.800;2023-09-07T02:58:36;6.83;;;4.30;;
14613;SDS011;7393;51.446;6.800;2023-09-07T03:01:05;6.77;;;4.20;;
14613;SDS011;7393;51.446;6.800;2023-09-07T03:03:35;4.70;;;3.80;;
14613;SDS011;7393;51.446;6.800;2023-09-07T03:06:07;6.77;;;4.20;;
14613;SDS011;7393;51.446;6.800;2023-09-07T03:08:34;4.47;;;3.80;;
14613;SDS011;7393;51.446;6.800;2023-09-07T03:11:02;4.00;;;3.60;;
14613;SDS011;7393;51.446;6.800;2023-09-07T03:13:29;5.00;;;3.37;;
14613;SDS011;7393;51.446;6.800;2023-09-07T03:15:56;7.93;;;3.60;;
14613;SDS011;7393;51.446;6.800;2023-09-07T03:18:22;4.13;;;3.60;;
14613;SDS011;7393;51.446;6.800;2023-09-07T03:20:53;6.60;;;3.43;;
14613;SDS011;7393;51.446;6.800;2023-09-07T03:23:21;3.60;;;3.30;;
14613;SDS011;7393;51.446;6.800;2023-09-07T03:25:48;5.00;;;3.80;;
14613;SDS011;7393;51.446;6.800;2023-09-07T03:28:15;5.20;;;3.80;;
14613;SDS011;7393;51.446;6.800;2023-09-07T03:30:42;4.13;;;3.33;;
14613;SDS011;7393;51.446;6.800;2023-09-07T03:33:09;6.50;;;3.37;;
14613;SDS011;7393;51.446;6.800;2023-09-07T03:35:35;3.67;;;3.30;;
14613;SDS011;7393;51.446;6.800;2023-09-07T03:38:04;4.50;;;3.50;;
14613;SDS011;7393;51.446;6.800;2023-09-07T03:40:31;4.93;;;3.17;;
14613;SDS011;7393;51.446;6.800;2023-09-07T03:42:58;7.23;;;3.50;;
14613;SDS011;7393;51.446;6.800;2023-09-07T03:45:24;4.03;;;3.63;;
14613;SDS011;7393;51.446;6.800;2023-09-07T03:47:51;4.23;;;3.60;;
14613;SDS011;7393;51.446;6.800;2023-09-07T03:50:18;5.27;;;3.30;;
14613;SDS011;7393;51.446;6.800;2023-09-07T03:52:45;4.03;;;3.63;;
14613;SDS011;7393;51.446;6.800;2023-09-07T03:55:13;3.87;;;3.47;;
14613;SDS011;7393;51.446;6.800;2023-09-07T03:57:40;6.77;;;3.70;;
14613;SDS011;7393;51.446;6.800;2023-09-07T04:00:07;9.30;;;4.07;;
14613;SDS011;7393;51.446;6.800;2023-09-07T04:02:35;3.97;;;3.50;;
14613;SDS011;7393;51.446;6.800;2023-09-07T04:05:02;6.47;;;3.90;;
14613;SDS011;7393;51.446;6.800;2023-09-07T04:07:30;7.00;;;3.50;;
14613;SDS011;7393;51.446;6.800;2023-09-07T04:09:56;4.63;;;3.50;;
14613;SDS011;7393;51.446;6.800;2023-09-07T04:12:25;5.03;;;3.70;;
14613;SDS011;7393;51.446;6.800;2023-09-07T04:14:52;6.30;;;3.90;;
14613;SDS011;7393;51.446;6.800;2023-09-07T04:17:18;7.27;;;3.87;;
14613;SDS011;7393;51.446;6.800;2023-09-07T04:19:45;6.03;;;3.70;;
14613;SDS011;7393;51.446;6.800;2023-09-07T04:22:12;5.23;;;3.97;;
14613;SDS011;7393;51.446;6.800;2023-09-07T04:24:39;3.97;;;3.57;;
14613;SDS011;7393;51.446;6.800;2023-09-07T04:27:06;6.63;;;4.10;;
14613;SDS011;7393;51.446;6.800;2023-09-07T04:29:34;7.87;;;4.37;;
14613;SDS011;7393;51.446;6.800;2023-09-07T04:32:01;5.03;;;4.13;;
14613;SDS011;7393;51.446;6.800;2023-09-07T04:34:27;6.17;;;4.30;;
14613;SDS011;7393;51.446;6.800;2023-09-07T04:36:54;8.50;;;4.30;;
14613;SDS011;7393;51.446;6.800;2023-09-07T04:39:21;6.23;;;4.30;;
14613;SDS011;7393;51.446;6.800;2023-09-07T04:41:48;5.40;;;4.23;;
14613;SDS011;7393;51.446;6.800;2023-09-07T04:44:14;6.70;;;4.33;;
14613;SDS011;7393;51.446;6.800;2023-09-07T04:46:42;6.60;;;4.30;;
14613;SDS011;7393;51.446;6.800;2023-09-07T04:49:09;6.90;;;3.97;;
14613;SDS011;7393;51.446;6.800;2023-09-07T04:51:36;5.40;;;4.03;;
14613;SDS011;7393;51.446;6.800;2023-09-07T04:54:03;6.50;;;4.40;;
14613;SDS011;7393;51.446;6.800;2023-09-07T04:56:30;5.73;;;4.33;;
14613;SDS011;7393;51.446;6.800;2023-09-07T04:58:56;8.47;;;4.63;;
14613;SDS011;7393;51.446;6.800;2023-09-07T05:01:23;6.00;;;4.53;;
14613;SDS011;7393;51.446;6.800;2023-09-07T05:03:51;9.13;;;4.53;;
14613;SDS011;7393;51.446;6.800;2023-09-07T05:06:19;4.80;;;4.30;;
14613;SDS011;7393;51.446;6.800;2023-09-07T05:08:48;6.43;;;4.33;;
14613;SDS011;7393;51.446;6.800;2023-09-07T05:11:14;7.87;;;4.80;;
14613;SDS011;7393;51.446;6.800;2023-09-07T05:13:41;6.67;;;4.47;;
14613;SDS011;7393;51.446;6.800;2023-09-07T05:16:08;12.13;;;5.33;;
14613;SDS011;7393;51.446;6.800;2023-09-07T05:18:35;6.33;;;4.83;;
14613;SDS011;7393;51.446;6.800;2023-09-07T05:21:11;8.13;;;4.70;;
14613;SDS011;7393;51.446;6.800;2023-09-07T05:23:39;7.30;;;4.70;;
14613;SDS011;7393;51.446;6.800;2023-09-07T05:26:06;13.10;;;4.43;;
14613;SDS011;7393;51.446;6.800;2023-09-07T05:28:33;9.50;;;5.00;;
14613;SDS011;7393;51.446;6.800;2023-09-07T05:31:00;6.70;;;4.47;;
14613;SDS011;7393;51.446;6.800;2023-09-07T05:33:26;7.23;;;4.43;;
14613;SDS011;7393;51.446;6.800;2023-09-07T05:35:53;7.30;;;4.00;;
14613;SDS011;7393;51.446;6.800;2023-09-07T05:38:21;10.07;;;5.00;;
14613;SDS011;7393;51.446;6.800;2023-09-07T05:40:48;6.57;;;4.67;;
14613;SDS011;7393;51.446;6.800;2023-09-07T05:43:19;7.77;;;4.40;;
14613;SDS011;7393;51.446;6.800;2023-09-07T05:45:46;6.23;;;4.10;;
14613;SDS011;7393;51.446;6.800;2023-09-07T05:48:12;7.43;;;4.33;;
14613;SDS011;7393;51.446;6.800;2023-09-07T05:50:41;9.70;;;4.70;;
14613;SDS011;7393;51.446;6.800;2023-09-07T05:53:08;8.90;;;4.87;;
14613;SDS011;7393;51.446;6.800;2023-09-07T05:55:36;13.13;;;5.20;;
14613;SDS011;7393;51.446;6.800;2023-09-07T05:58:04;10.83;;;5.30;;
14613;SDS011;7393;51.446;6.800;2023-09-07T06:00:31;10.13;;;5.87;;
14613;SDS011;7393;51.446;6.800;2023-09-07T06:02:59;14.60;;;6.20;;
14613;SDS011;7393;51.446;6.800;2023-09-07T06:05:26;15.40;;;5.97;;
14613;SDS011;7393;51.446;6.800;2023-09-07T06:07:53;12.10;;;6.33;;
14613;SDS011;7393;51.446;6.800;2023-09-07T06:10:20;13.80;;;7.10;;
14613;SDS011;7393;51.446;6.800;2023-09-07T06:12:48;14.43;;;6.90;;
14613;SDS011;7393;51.446;6.800;2023-09-07T06:15:15;14.90;;;6.40;;
14613;SDS011;7393;51.446;6.800;2023-09-07T06:17:42;12.20;;;7.17;;
14613;SDS011;7393;51.446;6.800;2023-09-07T06:20:10;16.30;;;7.00;;
14613;SDS011;7393;51.446;6.800;2023-09-07T06:22:37;13.50;;;7.10;;
14613;SDS011;7393;51.446;6.800;2023-09-07T06:25:04;14.07;;;6.30;;
14613;SDS011;7393;51.446;6.800;2023-09-07T06:27:31;11.53;;;7.23;;
14613;SDS011;7393;51.446;6.800;2023-09-07T06:29:59;15.07;;;6.83;;
14613;SDS011;7393;51.446;6.800;2023-09-07T06:32:26;12.57;;;6.10;;
14613;SDS011;7393;51.446;6.800;2023-09-07T06:34:53;9.83;;;6.00;;
14613;SDS011;7393;51.446;6.800;2023-09-07T06:37:20;9.77;;;5.97;;
14613;SDS011;7393;51.446;6.800;2023-09-07T06:39:49;11.43;;;5.93;;
14613;SDS011;7393;51.446;6.800;2023-09-07T06:42:16;10.90;;;6.53;;
14613;SDS011;7393;51.446;6.800;2023-09-07T06:44:43;13.47;;;6.70;;
14613;SDS011;7393;51.446;6.800;2023-09-07T06:47:11;9.03;;;6.20;;
14613;SDS011;7393;51.446;6.800;2023-09-07T06:49:38;14.53;;;6.53;;
14613;SDS011;7393;51.446;6.800;2023-09-07T06:52:05;12.80;;;6.20;;
14613;SDS011;7393;51.446;6.800;2023-09-07T06:54:32;10.83;;;5.97;;
14613;SDS011;7393;51.446;6.800;2023-09-07T06:56:58;7.97;;;5.33;;
14613;SDS011;7393;51.446;6.800;2023-09-07T06:59:25;9.03;;;5.53;;
14613;SDS011;7393;51.446;6.800;2023-09-07T07:01:52;9.20;;;5.80;;
14613;SDS011;7393;51.446;6.800;2023-09-07T07:04:20;9.87;;;5.40;;
14613;SDS011;7393;51.446;6.800;2023-09-07T07:06:46;8.53;;;5.23;;
14613;SDS011;7393;51.446;6.800;2023-09-07T07:09:12;10.53;;;5.57;;
14613;SDS011;7393;51.446;6.800;2023-09-07T07:11:40;12.47;;;5.57;;
14613;SDS011;7393;51.446;6.800;2023-09-07T07:14:08;7.90;;;4.97;;
14613;SDS011;7393;51.446;6.800;2023-09-07T07:16:36;13.50;;;5.50;;
14613;SDS011;7393;51.446;6.800;2023-09-07T07:19:03;9.03;;;5.33;;
14613;SDS011;7393;51.446;6.800;2023-09-07T07:21:31;9.50;;;5.50;;
14613;SDS011;7393;51.446;6.800;2023-09-07T07:23:58;7.63;;;5.10;;
14613;SDS011;7393;51.446;6.800;2023-09-07T07:26:25;11.13;;;4.93;;
14613;SDS011;7393;51.446;6.800;2023-09-07T07:28:51;7.10;;;4.53;;
14613;SDS011;7393;51.446;6.800;2023-09-07T07:31:18;7.37;;;4.93;;
14613;SDS011;7393;51.446;6.800;2023-09-07T07:33:45;7.27;;;4.40;;
14613;SDS011;7393;51.446;6.800;2023-09-07T07:36:13;8.57;;;4.70;;
14613;SDS011;7393;51.446;6.800;2023-09-07T07:38:41;8.60;;;5.07;;
14613;SDS011;7393;51.446;6.800;2023-09-07T07:41:08;6.10;;;5.10;;
14613;SDS011;7393;51.446;6.800;2023-09-07T07:43:35;6.67;;;5.00;;
14613;SDS011;7393;51.446;6.800;2023-09-07T07:46:02;7.43;;;4.47;;
14613;SDS011;7393;51.446;6.800;2023-09-07T07:48:29;8.03;;;5.50;;
14613;SDS011;7393;51.446;6.800;2023-09-07T07:50:56;8.07;;;5.67;;
14613;SDS011;7393;51.446;6.800;2023-09-07T07:53:22;8.70;;;5.30;;
14613;SDS011;7393;51.446;6.800;2023-09-07T07:55:51;10.23;;;5.70;;
14613;SDS011;7393;51.446;6.800;2023-09-07T07:58:18;10.23;;;6.10;;
14613;SDS011;7393;51.446;6.800;2023-09-07T08:00:45;11.87;;;5.40;;
14613;SDS011;7393;51.446;6.800;2023-09-07T08:03:13;11.27;;;5.70;;
14613;SDS011;7393;51.446;6.800;2023-09-07T08:05:40;9.73;;;5.87;;
14613;SDS011;7393;51.446;6.800;2023-09-07T08:08:07;9.67;;;5.37;;
14613;SDS011;7393;51.446;6.800;2023-09-07T08:10:35;8.43;;;4.40;;
14613;SDS011;7393;51.446;6.800;2023-09-07T08:13:04;6.13;;;4.40;;
14613;SDS011;7393;51.446;6.800;2023-09-07T08:15:31;7.33;;;4.07;;
14613;SDS011;7393;51.446;6.800;2023-09-07T08:17:58;5.60;;;4.03;;
14613;SDS011;7393;51.446;6.800;2023-09-07T08:20:25;7.50;;;4.37;;
14613;SDS011;7393;51.446;6.800;2023-09-07T08:22:54;4.23;;;3.83;;
14613;SDS011;7393;51.446;6.800;2023-09-07T08:25:21;4.83;;;3.37;;
14613;SDS011;7393;51.446;6.800;2023-09-07T08:27:48;3.70;;;3.27;;
14613;SDS011;7393;51.446;6.800;2023-09-07T08:30:16;4.40;;;3.17;;
14613;SDS011;7393;51.446;6.800;2023-09-07T08:32:43;3.60;;;3.03;;
14613;SDS011;7393;51.446;6.800;2023-09-07T08:35:11;4.90;;;3.20;;
14613;SDS011;7393;51.446;6.800;2023-09-07T08:37:39;4.37;;;3.30;;
14613;SDS011;7393;51.446;6.800;2023-09-07T08:40:06;7.27;;;3.43;;
14613;SDS011;7393;51.446;6.800;2023-09-07T08:42:36;3.63;;;3.30;;
14613;SDS011;7393;51.446;6.800;2023-09-07T08:45:03;3.83;;;2.77;;
14613;SDS011;7393;51.446;6.800;2023-09-07T08:47:34;3.67;;;2.83;;
14613;SDS011;7393;51.446;6.800;2023-09-07T08:50:02;3.17;;;2.80;;
14613;SDS011;7393;51.446;6.800;2023-09-07T08:52:31;4.27;;;3.13;;
14613;SDS011;7393;51.446;6.800;2023-09-07T08:54:58;4.63;;;3.10;;
14613;SDS011;7393;51.446;6.800;2023-09-07T08:57:26;3.30;;;3.00;;
14613;SDS011;7393;51.446;6.800;2023-09-07T08:59:55;6.38;;;3.08;;
14613;SDS011;7393;51.446;6.800;2023-09-07T09:02:22;3.92;;;2.92;;
14613;SDS011;7393;51.446;6.800;2023-09-07T09:04:50;4.25;;;3.17;;
14613;SDS011;7393;51.446;6.800;2023-09-07T09:07:18;5.10;;;2.90;;
14613;SDS011;7393;51.446;6.800;2023-09-07T09:09:46;3.28;;;2.97;;
14613;SDS011;7393;51.446;6.800;2023-09-07T09:12:12;4.15;;;3.00;;
14613;SDS011;7393;51.446;6.800;2023-09-07T09:14:41;5.70;;;3.00;;
14613;SDS011;7393;51.446;6.800;2023-09-07T09:17:11;3.70;;;3.30;;
14613;SDS011;7393;51.446;6.800;2023-09-07T09:19:39;4.13;;;3.08;;
14613;SDS011;7393;51.446;6.800;2023-09-07T09:22:07;5.20;;;3.00;;
14613;SDS011;7393;51.446;6.800;2023-09-07T09:24:34;4.38;;;3.22;;
14613;SDS011;7393;51.446;6.800;2023-09-07T09:27:01;3.55;;;3.22;;
14613;SDS011;7393;51.446;6.800;2023-09-07T09:29:29;3.60;;;2.72;;
14613;SDS011;7393;51.446;6.800;2023-09-07T09:31:58;4.90;;;3.15;;
14613;SDS011;7393;51.446;6.800;2023-09-07T09:34:26;4.40;;;3.30;;
14613;SDS011;7393;51.446;6.800;2023-09-07T09:36:56;4.25;;;2.97;;
14613;SDS011;7393;51.446;6.800;2023-09-07T09:39:24;4.05;;;3.08;;
14613;SDS011;7393;51.446;6.800;2023-09-07T09:41:52;4.78;;;3.40;;
14613;SDS011;7393;51.446;6.800;2023-09-07T09:44:20;3.63;;;3.22;;
14613;SDS011;7393;51.446;6.800;2023-09-07T09:46:50;3.42;;;2.90;;
14613;SDS011;7393;51.446;6.800;2023-09-07T09:49:19;3.50;;;2.88;;
14613;SDS011;7393;51.446;6.800;2023-09-07T09:51:46;4.72;;;3.30;;
14613;SDS011;7393;51.446;6.800;2023-09-07T09:54:16;3.42;;;3.17;;
14613;SDS011;7393;51.446;6.800;2023-09-07T09:56:45;3.25;;;2.95;;
14613;SDS011;7393;51.446;6.800;2023-09-07T09:59:12;3.25;;;2.85;;
14613;SDS011;7393;51.446;6.800;2023-09-07T10:01:40;4.57;;;3.10;;
14613;SDS011;7393;51.446;6.800;2023-09-07T10:04:10;3.67;;;3.22;;
14613;SDS011;7393;51.446;6.800;2023-09-07T10:06:49;3.60;;;3.20;;
14613;SDS011;7393;51.446;6.800;2023-09-07T10:09:17;3.20;;;2.90;;
14613;SDS011;7393;51.446;6.800;2023-09-07T10:11:50;3.53;;;2.83;;
14613;SDS011;7393;51.446;6.800;2023-09-07T10:14:18;4.30;;;3.00;;
14613;SDS011;7393;51.446;6.800;2023-09-07T10:16:45;4.80;;;3.22;;
14613;SDS011;7393;51.446;6.800;2023-09-07T10:19:14;5.03;;;2.95;;
14613;SDS011;7393;51.446;6.800;2023-09-07T10:21:41;3.53;;;3.20;;
14613;SDS011;7393;51.446;6.800;2023-09-07T10:24:08;5.90;;;3.10;;
14613;SDS011;7393;51.446;6.800;2023-09-07T10:26:35;3.72;;;3.33;;
14613;SDS011;7393;51.446;6.800;2023-09-07T10:29:03;3.40;;;3.10;;
14613;SDS011;7393;51.446;6.800;2023-09-07T10:31:30;4.95;;;3.20;;
14613;SDS011;7393;51.446;6.800;2023-09-07T10:34:07;5.45;;;3.40;;
14613;SDS011;7393;51.446;6.800;2023-09-07T10:36:35;3.15;;;2.70;;
14613;SDS011;7393;51.446;6.800;2023-09-07T10:39:03;3.40;;;2.95;;
14613;SDS011;7393;51.446;6.800;2023-09-07T10:41:40;3.42;;;3.00;;
14613;SDS011;7393;51.446;6.800;2023-09-07T10:44:09;4.00;;;2.92;;
14613;SDS011;7393;51.446;6.800;2023-09-07T10:46:37;3.60;;;3.10;;
14613;SDS011;7393;51.446;6.800;2023-09-07T10:49:06;3.67;;;3.20;;
14613;SDS011;7393;51.446;6.800;2023-09-07T10:51:39;4.07;;;2.90;;
14613;SDS011;7393;51.446;6.800;2023-09-07T10:54:13;3.20;;;2.78;;
14613;SDS011;7393;51.446;6.800;2023-09-07T10:56:40;3.00;;;2.80;;
14613;SDS011;7393;51.446;6.800;2023-09-07T10:59:10;3.70;;;2.83;;
14613;SDS011;7393;51.446;6.800;2023-09-07T11:01:37;2.97;;;2.65;;
14613;SDS011;7393;51.446;6.800;2023-09-07T11:04:05;3.30;;;2.90;;
14613;SDS011;7393;51.446;6.800;2023-09-07T11:06:33;3.15;;;2.83;;
14613;SDS011;7393;51.446;6.800;2023-09-07T11:09:01;3.15;;;2.85;;
14613;SDS011;7393;51.446;6.800;2023-09-07T11:11:31;3.13;;;2.60;;
14613;SDS011;7393;51.446;6.800;2023-09-07T11:13:59;4.43;;;2.70;;
14613;SDS011;7393;51.446;6.800;2023-09-07T11:16:28;3.58;;;2.78;;
14613;SDS011;7393;51.446;6.800;2023-09-07T11:18:55;3.83;;;2.80;;
14613;SDS011;7393;51.446;6.800;2023-09-07T11:21:23;3.20;;;2.90;;
14613;SDS011;7393;51.446;6.800;2023-09-07T11:23:51;3.10;;;2.78;;
14613;SDS011;7393;51.446;6.800;2023-09-07T11:26:18;4.55;;;2.88;;
14613;SDS011;7393;51.446;6.800;2023-09-07T11:28:45;3.20;;;2.90;;
14613;SDS011;7393;51.446;6.800;2023-09-07T11:31:12;2.95;;;2.60;;
14613;SDS011;7393;51.446;6.800;2023-09-07T11:33:40;4.25;;;2.85;;
14613;SDS011;7393;51.446;6.800;2023-09-07T11:36:07;3.70;;;2.50;;
14613;SDS011;7393;51.446;6.800;2023-09-07T11:38:35;3.65;;;2.90;;
14613;SDS011;7393;51.446;6.800;2023-09-07T11:41:03;3.85;;;2.63;;
14613;SDS011;7393;51.446;6.800;2023-09-07T11:43:30;3.13;;;2.83;;
14613;SDS011;7393;51.446;6.800;2023-09-07T11:45:58;3.40;;;3.10;;
14613;SDS011;7393;51.446;6.800;2023-09-07T11:48:26;4.20;;;2.80;;
14613;SDS011;7393;51.446;6.800;2023-09-07T11:50:54;3.00;;;2.60;;
14613;SDS011;7393;51.446;6.800;2023-09-07T11:53:21;3.45;;;2.60;;
14613;SDS011;7393;51.446;6.800;2023-09-07T11:55:48;4.25;;;2.35;;
14613;SDS011;7393;51.446;6.800;2023-09-07T11:58:15;3.25;;;2.95;;
14613;SDS011;7393;51.446;6.800;2023-09-07T12:00:42;2.78;;;2.50;;
14613;SDS011;7393;51.446;6.800;2023-09-07T12:03:08;2.60;;;2.40;;
14613;SDS011;7393;51.446;6.800;2023-09-07T12:05:35;4.47;;;3.00;;
14613;SDS011;7393;51.446;6.800;2023-09-07T12:08:05;3.17;;;2.88;;
14613;SDS011;7393;51.446;6.800;2023-09-07T12:10:32;2.65;;;2.45;;
14613;SDS011;7393;51.446;6.800;2023-09-07T12:12:59;4.78;;;2.90;;
14613;SDS011;7393;51.446;6.800;2023-09-07T12:15:25;3.20;;;2.90;;
14613;SDS011;7393;51.446;6.800;2023-09-07T12:17:52;3.83;;;2.83;;
14613;SDS011;7393;51.446;6.800;2023-09-07T12:20:20;3.25;;;2.95;;
14613;SDS011;7393;51.446;6.800;2023-09-07T12:22:47;5.40;;;3.00;;
14613;SDS011;7393;51.446;6.800;2023-09-07T12:25:16;3.75;;;2.70;;
14613;SDS011;7393;51.446;6.800;2023-09-07T12:27:43;6.00;;;2.95;;
14613;SDS011;7393;51.446;6.800;2023-09-07T12:30:11;2.97;;;2.78;;
14613;SDS011;7393;51.446;6.800;2023-09-07T12:32:38;3.22;;;2.75;;
14613;SDS011;7393;51.446;6.800;2023-09-07T12:35:06;7.32;;;2.92;;
14613;SDS011;7393;51.446;6.800;2023-09-07T12:37:33;4.82;;;2.78;;
14613;SDS011;7393;51.446;6.800;2023-09-07T12:40:01;3.47;;;3.17;;
14613;SDS011;7393;51.446;6.800;2023-09-07T12:42:37;4.03;;;3.05;;
14613;SDS011;7393;51.446;6.800;2023-09-07T12:45:06;5.13;;;3.10;;
14613;SDS011;7393;51.446;6.800;2023-09-07T12:47:34;4.18;;;2.70;;
14613;SDS011;7393;51.446;6.800;2023-09-07T12:50:01;2.78;;;2.47;;
14613;SDS011;7393;51.446;6.800;2023-09-07T12:52:29;3.13;;;2.42;;
14613;SDS011;7393;51.446;6.800;2023-09-07T12:54:56;3.38;;;2.70;;
14613;SDS011;7393;51.446;6.800;2023-09-07T12:57:23;2.60;;;2.40;;
14613;SDS011;7393;51.446;6.800;2023-09-07T12:59:51;5.40;;;2.83;;
14613;SDS011;7393;51.446;6.800;2023-09-07T13:02:18;4.03;;;2.85;;
14613;SDS011;7393;51.446;6.800;2023-09-07T13:04:45;3.40;;;3.10;;
14613;SDS011;7393;51.446;6.800;2023-09-07T13:07:12;2.95;;;2.70;;
14613;SDS011;7393;51.446;6.800;2023-09-07T13:09:39;2.75;;;2.55;;
14613;SDS011;7393;51.446;6.800;2023-09-07T13:12:06;3.78;;;2.28;;
14613;SDS011;7393;51.446;6.800;2023-09-07T13:14:33;3.53;;;2.60;;
14613;SDS011;7393;51.446;6.800;2023-09-07T13:17:01;3.47;;;3.03;;
14613;SDS011;7393;51.446;6.800;2023-09-07T13:19:28;3.25;;;2.95;;
14613;SDS011;7393;51.446;6.800;2023-09-07T13:21:55;4.20;;;2.58;;
14613;SDS011;7393;51.446;6.800;2023-09-07T13:24:21;3.15;;;2.88;;
14613;SDS011;7393;51.446;6.800;2023-09-07T13:26:50;2.88;;;2.67;;
14613;SDS011;7393;51.446;6.800;2023-09-07T13:29:17;4.05;;;3.03;;
14613;SDS011;7393;51.446;6.800;2023-09-07T13:31:44;3.00;;;2.80;;
14613;SDS011;7393;51.446;6.800;2023-09-07T13:34:12;4.43;;;2.85;;
14613;SDS011;7393;51.446;6.800;2023-09-07T13:36:39;4.03;;;3.63;;
14613;SDS011;7393;51.446;6.800;2023-09-07T13:39:06;3.28;;;2.97;;
14613;SDS011;7393;51.446;6.800;2023-09-07T13:41:32;3.33;;;3.00;;
14613;SDS011;7393;51.446;6.800;2023-09-07T13:43:59;6.07;;;3.20;;
14613;SDS011;7393;51.446;6.800;2023-09-07T13:46:26;6.10;;;3.30;;
14613;SDS011;7393;51.446;6.800;2023-09-07T13:48:54;3.88;;;3.20;;
14613;SDS011;7393;51.446;6.800;2023-09-07T13:51:22;3.47;;;3.17;;
14613;SDS011;7393;51.446;6.800;2023-09-07T13:53:49;3.30;;;3.00;;
14613;SDS011;7393;51.446;6.800;2023-09-07T13:56:16;4.55;;;3.17;;
14613;SDS011;7393;51.446;6.800;2023-09-07T13:58:43;3.75;;;3.45;;
14613;SDS011;7393;51.446;6.800;2023-09-07T14:01:11;5.57;;;3.20;;
14613;SDS011;7393;51.446;6.800;2023-09-07T14:03:38;3.30;;;3.03;;
14613;SDS011;7393;51.446;6.800;2023-09-07T14:06:04;5.40;;;3.10;;
14613;SDS011;7393;51.446;6.800;2023-09-07T14:08:32;3.28;;;2.97;;
14613;SDS011;7393;51.446;6.800;2023-09-07T14:10:59;4.00;;;3.00;;
14613;SDS011;7393;51.446;6.800;2023-09-07T14:13:26;3.33;;;3.03;;
14613;SDS011;7393;51.446;6.800;2023-09-07T14:15:53;4.30;;;3.22;;
14613;SDS011;7393;51.446;6.800;2023-09-07T14:18:20;5.00;;;3.20;;
14613;SDS011;7393;51.446;6.800;2023-09-07T14:20:47;3.85;;;3.45;;
14613;SDS011;7393;51.446;6.800;2023-09-07T14:23:13;5.45;;;3.25;;
14613;SDS011;7393;51.446;6.800;2023-09-07T14:25:42;3.90;;;3.47;;
14613;SDS011;7393;51.446;6.800;2023-09-07T14:28:10;6.93;;;3.13;;
14613;SDS011;7393;51.446;6.800;2023-09-07T14:30:37;4.93;;;3.60;;
14613;SDS011;7393;51.446;6.800;2023-09-07T14:33:03;3.53;;;3.22;;
14613;SDS011;7393;51.446;6.800;2023-09-07T14:35:31;4.10;;;3.10;;
14613;SDS011;7393;51.446;6.800;2023-09-07T14:37:58;3.65;;;3.20;;
14613;SDS011;7393;51.446;6.800;2023-09-07T14:40:25;3.47;;;3.17;;
14613;SDS011;7393;51.446;6.800;2023-09-07T14:42:53;4.28;;;3.75;;
14613;SDS011;7393;51.446;6.800;2023-09-07T14:45:22;3.90;;;3.60;;
14613;SDS011;7393;51.446;6.800;2023-09-07T14:47:49;8.00;;;3.60;;
14613;SDS011;7393;51.446;6.800;2023-09-07T14:50:16;6.97;;;2.88;;
14613;SDS011;7393;51.446;6.800;2023-09-07T14:52:43;3.60;;;3.30;;
14613;SDS011;7393;51.446;6.800;2023-09-07T14:55:12;3.97;;;3.60;;
14613;SDS011;7393;51.446;6.800;2023-09-07T14:57:39;4.28;;;3.60;;
14613;SDS011;7393;51.446;6.800;2023-09-07T15:00:08;5.13;;;3.60;;
14613;SDS011;7393;51.446;6.800;2023-09-07T15:02:36;4.93;;;3.40;;
14613;SDS011;7393;51.446;6.800;2023-09-07T15:05:03;3.92;;;3.53;;